sensor_id;sensor_type;location;lat;lon;timestamp;P1;P2;P0
57623;PMS7003;43448;52.264;20.644;2023-05-17T00:00:01;19;18;
57623;PMS7003;43448;52.264;20.644;2023-05-17T00:10:00;18;17;
57623;PMS7003;43448;52.264;20.644;2023-05-17T00:20:00;27;20;
57623;PMS7003;43448;52.264;20.644;2023-05-17T00:30:00;18;18;
57623;PMS7003;43448;52.264;20.644;2023-05-17T00:40:01;26;26;
57623;PMS7003;43448;52.264;20.644;2023-05-17T00:50:01;23;20;
57623;PMS7003;43448;52.264;20.644;2023-05-17T01:00:01;24;23;
57623;PMS7003;43448;52.264;20.644;2023-05-17T01:10:00;25;22;
57623;PMS7003;43448;52.264;20.644;2023-05-17T01:20:03;27;24;
57623;PMS7003;43448;52.264;20.644;2023-05-17T01:30:00;28;26;
57623;PMS7003;43448;52.264;20.644;2023-05-17T01:40:00;28;26;
57623;PMS7003;43448;52.264;20.644;2023-05-17T01:50:00;28;27;
57623;PMS7003;43448;52.264;20.644;2023-05-17T02:00:02;27;26;
57623;PMS7003;43448;52.264;20.644;2023-05-17T02:10:00;28;25;
57623;PMS7003;43448;52.264;20.644;2023-05-17T02:20:00;32;30;
57623;PMS7003;43448;52.264;20.644;2023-05-17T02:30:00;31;25;
57623;PMS7003;43448;52.264;20.644;2023-05-17T02:40:00;29;29;
57623;PMS7003;43448;52.264;20.644;2023-05-17T02:50:00;26;25;
57623;PMS7003;43448;52.264;20.644;2023-05-17T03:00:01;31;26;
57623;PMS7003;43448;52.264;20.644;2023-05-17T03:10:00;30;25;
57623;PMS7003;43448;52.264;20.644;2023-05-17T03:20:00;27;24;
57623;PMS7003;43448;52.264;20.644;2023-05-17T03:30:00;32;30;
57623;PMS7003;43448;52.264;20.644;2023-05-17T03:40:00;33;29;
57623;PMS7003;43448;52.264;20.644;2023-05-17T03:50:00;32;29;
57623;PMS7003;43448;52.264;20.644;2023-05-17T04:00:01;30;29;
57623;PMS7003;43448;52.264;20.644;2023-05-17T04:10:00;30;28;
57623;PMS7003;43448;52.264;20.644;2023-05-17T04:20:00;37;30;
57623;PMS7003;43448;52.264;20.644;2023-05-17T04:30:00;37;32;
57623;PMS7003;43448;52.264;20.644;2023-05-17T04:40:00;38;32;
57623;PMS7003;43448;52.264;20.644;2023-05-17T04:50:00;36;31;
57623;PMS7003;43448;52.264;20.644;2023-05-17T05:00:01;31;30;
57623;PMS7003;43448;52.264;20.644;2023-05-17T05:10:00;34;29;
57623;PMS7003;43448;52.264;20.644;2023-05-17T05:20:00;33;26;
57623;PMS7003;43448;52.264;20.644;2023-05-17T05:30:01;27;25;
57623;PMS7003;43448;52.264;20.644;2023-05-17T05:40:00;31;27;
57623;PMS7003;43448;52.264;20.644;2023-05-17T05:50:00;26;22;
57623;PMS7003;43448;52.264;20.644;2023-05-17T06:00:01;26;22;
57623;PMS7003;43448;52.264;20.644;2023-05-17T06:10:00;27;25;
57623;PMS7003;43448;52.264;20.644;2023-05-17T06:20:00;22;18;
57623;PMS7003;43448;52.264;20.644;2023-05-17T06:30:01;27;21;
57623;PMS7003;43448;52.264;20.644;2023-05-17T06:40:01;23;20;
57623;PMS7003;43448;52.264;20.644;2023-05-17T06:50:00;25;21;
57623;PMS7003;43448;52.264;20.644;2023-05-17T07:00:01;23;21;
57623;PMS7003;43448;52.264;20.644;2023-05-17T07:10:00;18;17;
57623;PMS7003;43448;52.264;20.644;2023-05-17T07:20:00;17;16;
57623;PMS7003;43448;52.264;20.644;2023-05-17T07:30:00;23;18;
57623;PMS7003;43448;52.264;20.644;2023-05-17T07:40:01;22;18;
57623;PMS7003;43448;52.264;20.644;2023-05-17T07:50:01;22;19;
57623;PMS7003;43448;52.264;20.644;2023-05-17T08:00:01;18;14;
57623;PMS7003;43448;52.264;20.644;2023-05-17T08:10:00;17;16;
57623;PMS7003;43448;52.264;20.644;2023-05-17T08:20:00;14;14;
57623;PMS7003;43448;52.264;20.644;2023-05-17T08:30:00;19;16;
57623;PMS7003;43448;52.264;20.644;2023-05-17T08:40:00;11;10;
57623;PMS7003;43448;52.264;20.644;2023-05-17T08:50:00;17;12;
57623;PMS7003;43448;52.264;20.644;2023-05-17T09:00:01;15;14;
57623;PMS7003;43448;52.264;20.644;2023-05-17T09:10:01;15;12;
57623;PMS7003;43448;52.264;20.644;2023-05-17T09:20:00;18;16;
57623;PMS7003;43448;52.264;20.644;2023-05-17T09:30:00;17;14;
57623;PMS7003;43448;52.264;20.644;2023-05-17T09:40:00;15;14;
57623;PMS7003;43448;52.264;20.644;2023-05-17T09:50:00;19;16;
57623;PMS7003;43448;52.264;20.644;2023-05-17T10:00:01;19;15;
57623;PMS7003;43448;52.264;20.644;2023-05-17T10:10:01;17;12;
57623;PMS7003;43448;52.264;20.644;2023-05-17T10:20:00;12;12;
57623;PMS7003;43448;52.264;20.644;2023-05-17T10:30:00;14;13;
57623;PMS7003;43448;52.264;20.644;2023-05-17T10:40:00;13;11;
57623;PMS7003;43448;52.264;20.644;2023-05-17T10:50:00;11;11;
57623;PMS7003;43448;52.264;20.644;2023-05-17T11:00:01;13;12;
57623;PMS7003;43448;52.264;20.644;2023-05-17T11:10:02;12;10;
57623;PMS7003;43448;52.264;20.644;2023-05-17T11:20:01;11;10;
57623;PMS7003;43448;52.264;20.644;2023-05-17T11:30:06;10;10;
57623;PMS7003;43448;52.264;20.644;2023-05-17T11:40:01;11;11;
57623;PMS7003;43448;52.264;20.644;2023-05-17T11:50:01;15;13;
57623;PMS7003;43448;52.264;20.644;2023-05-17T12:00:01;13;10;
57623;PMS7003;43448;52.264;20.644;2023-05-17T12:10:00;9;9;
57623;PMS7003;43448;52.264;20.644;2023-05-17T12:20:08;15;11;
57623;PMS7003;43448;52.264;20.644;2023-05-17T12:30:12;12;12;
57623;PMS7003;43448;52.264;20.644;2023-05-17T12:40:00;13;10;
57623;PMS7003;43448;52.264;20.644;2023-05-17T12:50:00;16;10;
57623;PMS7003;43448;52.264;20.644;2023-05-17T13:00:04;12;10;
57623;PMS7003;43448;52.264;20.644;2023-05-17T13:10:00;12;11;
57623;PMS7003;43448;52.264;20.644;2023-05-17T13:20:00;16;11;
57623;PMS7003;43448;52.264;20.644;2023-05-17T13:30:00;14;12;
57623;PMS7003;43448;52.264;20.644;2023-05-17T13:40:01;9;9;
57623;PMS7003;43448;52.264;20.644;2023-05-17T13:50:00;12;12;
57623;PMS7003;43448;52.264;20.644;2023-05-17T14:00:01;12;11;
57623;PMS7003;43448;52.264;20.644;2023-05-17T14:10:00;13;12;
57623;PMS7003;43448;52.264;20.644;2023-05-17T14:20:00;16;12;
57623;PMS7003;43448;52.264;20.644;2023-05-17T14:30:00;14;11;
57623;PMS7003;43448;52.264;20.644;2023-05-17T14:40:01;12;12;
57623;PMS7003;43448;52.264;20.644;2023-05-17T14:50:00;13;12;
57623;PMS7003;43448;52.264;20.644;2023-05-17T15:00:01;12;10;
57623;PMS7003;43448;52.264;20.644;2023-05-17T15:10:01;14;12;
57623;PMS7003;43448;52.264;20.644;2023-05-17T15:20:00;14;10;
57623;PMS7003;43448;52.264;20.644;2023-05-17T15:30:00;11;10;
57623;PMS7003;43448;52.264;20.644;2023-05-17T15:40:05;14;10;
57623;PMS7003;43448;52.264;20.644;2023-05-17T15:50:01;16;12;
57623;PMS7003;43448;52.264;20.644;2023-05-17T16:00:01;13;11;
57623;PMS7003;43448;52.264;20.644;2023-05-17T16:10:00;14;12;
57623;PMS7003;43448;52.264;20.644;2023-05-17T16:20:00;12;12;
57623;PMS7003;43448;52.264;20.644;2023-05-17T16:30:00;10;10;
57623;PMS7003;43448;52.264;20.644;2023-05-17T16:40:00;13;9;
57623;PMS7003;43448;52.264;20.644;2023-05-17T16:50:00;11;10;
57623;PMS7003;43448;52.264;20.644;2023-05-17T17:00:01;10;8;
57623;PMS7003;43448;52.264;20.644;2023-05-17T17:10:00;11;9;
57623;PMS7003;43448;52.264;20.644;2023-05-17T17:20:01;10;9;
57623;PMS7003;43448;52.264;20.644;2023-05-17T17:30:01;8;8;
57623;PMS7003;43448;52.264;20.644;2023-05-17T17:40:00;10;9;
57623;PMS7003;43448;52.264;20.644;2023-05-17T17:50:00;8;8;
57623;PMS7003;43448;52.264;20.644;2023-05-17T18:00:01;8;8;
57623;PMS7003;43448;52.264;20.644;2023-05-17T18:10:00;6;6;
57623;PMS7003;43448;52.264;20.644;2023-05-17T18:20:00;8;8;
57623;PMS7003;43448;52.264;20.644;2023-05-17T18:30:00;9;9;
57623;PMS7003;43448;52.264;20.644;2023-05-17T18:40:00;11;9;
57623;PMS7003;43448;52.264;20.644;2023-05-17T18:50:00;14;10;
57623;PMS7003;43448;52.264;20.644;2023-05-17T19:00:01;9;8;
57623;PMS7003;43448;52.264;20.644;2023-05-17T19:10:00;10;9;
57623;PMS7003;43448;52.264;20.644;2023-05-17T19:20:01;8;7;
57623;PMS7003;43448;52.264;20.644;2023-05-17T19:30:00;10;9;
57623;PMS7003;43448;52.264;20.644;2023-05-17T19:40:01;13;9;
57623;PMS7003;43448;52.264;20.644;2023-05-17T19:50:00;10;6;
57623;PMS7003;43448;52.264;20.644;2023-05-17T20:00:01;11;9;
57623;PMS7003;43448;52.264;20.644;2023-05-17T20:10:00;9;9;
57623;PMS7003;43448;52.264;20.644;2023-05-17T20:20:00;7;7;
57623;PMS7003;43448;52.264;20.644;2023-05-17T20:30:00;11;9;
57623;PMS7003;43448;52.264;20.644;2023-05-17T20:40:00;10;7;
57623;PMS7003;43448;52.264;20.644;2023-05-17T20:50:01;8;8;
57623;PMS7003;43448;52.264;20.644;2023-05-17T21:00:01;8;8;
57623;PMS7003;43448;52.264;20.644;2023-05-17T21:10:00;10;7;
57623;PMS7003;43448;52.264;20.644;2023-05-17T21:20:00;8;7;
57623;PMS7003;43448;52.264;20.644;2023-05-17T21:30:01;11;9;
57623;PMS7003;43448;52.264;20.644;2023-05-17T21:40:00;12;7;
57623;PMS7003;43448;52.264;20.644;2023-05-17T21:50:01;7;6;
57623;PMS7003;43448;52.264;20.644;2023-05-17T22:00:01;8;7;
57623;PMS7003;43448;52.264;20.644;2023-05-17T22:10:01;7;7;
57623;PMS7003;43448;52.264;20.644;2023-05-17T22:20:00;9;8;
57623;PMS7003;43448;52.264;20.644;2023-05-17T22:30:00;9;7;
57623;PMS7003;43448;52.264;20.644;2023-05-17T22:40:00;9;7;
57623;PMS7003;43448;52.264;20.644;2023-05-17T22:50:01;7;6;
57623;PMS7003;43448;52.264;20.644;2023-05-17T23:00:01;9;5;
57623;PMS7003;43448;52.264;20.644;2023-05-17T23:10:01;7;6;
57623;PMS7003;43448;52.264;20.644;2023-05-17T23:20:01;6;6;
57623;PMS7003;43448;52.264;20.644;2023-05-17T23:30:01;5;5;
57623;PMS7003;43448;52.264;20.644;2023-05-17T23:40:01;5;5;
57623;PMS7003;43448;52.264;20.644;2023-05-17T23:50:00;6;5;
